Time,TemperatureF,DewpointF,PressureIn,WindDirection,WindDirectionDegrees,WindSpeedMPH,WindSpeedGustMPH,Humidity,HourlyPrecipIn,Conditions,Clouds,dailyrainin,SoftwareType,DateUTC
2013-03-03 00:00:00,54.0,-99.9,30.28,East,89,11.0,13.0,-999,-99.99,,,-99.99,,2013-03-03 06:00:00,
2013-03-03 00:32:00,54.0,-99.9,30.28,East,89,11.0,13.0,-999,-99.99,,,-99.99,,2013-03-03 06:32:00,
2013-03-03 00:42:00,54.0,-99.9,30.28,East,89,11.0,13.0,-999,-99.99,,,-99.99,,2013-03-03 06:42:00,
2013-03-03 00:52:00,54.0,-99.9,30.28,East,89,11.0,13.0,-999,-99.99,,,-99.99,,2013-03-03 06:52:00,
2013-03-03 01:00:00,54.0,-99.9,30.28,ENE,75,11.0,13.0,-999,-99.99,,,-99.99,,2013-03-03 07:00:00,
2013-03-03 01:32:00,54.0,-99.9,30.28,ENE,75,11.0,13.0,-999,-99.99,,,-99.99,,2013-03-03 07:32:00,
2013-03-03 01:42:00,54.0,-99.9,30.28,ENE,75,11.0,13.0,-999,-99.99,,,-99.99,,2013-03-03 07:42:00,
2013-03-03 01:52:00,54.0,-99.9,30.28,ENE,75,11.0,13.0,-999,-99.99,,,-99.99,,2013-03-03 07:52:00,
2013-03-03 02:00:00,55.0,-99.9,30.27,East,79,11.0,14.0,-999,-99.99,,,-99.99,,2013-03-03 08:00:00,
2013-03-03 02:32:00,55.0,-99.9,30.27,East,79,11.0,14.0,-999,-99.99,,,-99.99,,2013-03-03 08:32:00,
2013-03-03 02:42:00,55.0,-99.9,30.27,East,79,11.0,14.0,-999,-99.99,,,-99.99,,2013-03-03 08:42:00,
2013-03-03 02:54:00,55.0,-99.9,30.27,East,79,11.0,14.0,-999,-99.99,,,-99.99,,2013-03-03 08:54:00,
2013-03-03 03:00:00,55.0,-99.9,30.25,East,82,11.0,14.0,-999,-99.99,,,-99.99,,2013-03-03 09:00:00,
2013-03-03 03:32:00,55.0,-99.9,30.25,East,82,11.0,14.0,-999,-99.99,,,-99.99,,2013-03-03 09:32:00,
2013-03-03 03:42:00,55.0,-99.9,30.25,East,82,11.0,14.0,-999,-99.99,,,-99.99,,2013-03-03 09:42:00,
2013-03-03 03:52:00,55.0,-99.9,30.25,East,82,11.0,14.0,-999,-99.99,,,-99.99,,2013-03-03 09:52:00,
2013-03-03 04:00:00,54.0,-99.9,30.23,East,91,11.0,12.0,-999,-99.99,,,-99.99,,2013-03-03 10:00:00,
2013-03-03 04:22:00,54.0,-99.9,30.23,East,91,11.0,12.0,-999,-99.99,,,-99.99,,2013-03-03 10:22:00,
2013-03-03 04:32:00,54.0,-99.9,30.23,East,91,11.0,12.0,-999,-99.99,,,-99.99,,2013-03-03 10:32:00,
2013-03-03 04:42:00,54.0,-99.9,30.23,East,91,11.0,12.0,-999,-99.99,,,-99.99,,2013-03-03 10:42:00,
2013-03-03 04:52:00,54.0,-99.9,30.23,East,91,11.0,12.0,-999,-99.99,,,-99.99,,2013-03-03 10:52:00,
2013-03-03 05:00:00,53.0,-99.9,30.24,ESE,106,5.0,6.0,-999,-99.99,,,-99.99,,2013-03-03 11:00:00,
2013-03-03 05:32:00,53.0,-99.9,30.24,ESE,106,5.0,6.0,-999,-99.99,,,-99.99,,2013-03-03 11:32:00,
2013-03-03 05:42:00,53.0,-99.9,30.24,ESE,106,5.0,6.0,-999,-99.99,,,-99.99,,2013-03-03 11:42:00,
2013-03-03 05:53:00,53.0,-99.9,30.24,ESE,106,5.0,6.0,-999,-99.99,,,-99.99,,2013-03-03 11:53:00,
2013-03-03 06:00:00,54.0,-99.9,30.25,SE,125,5.0,6.0,-999,-99.99,,,-99.99,,2013-03-03 12:00:00,
2013-03-03 06:32:00,54.0,-99.9,30.25,SE,125,5.0,6.0,-999,-99.99,,,-99.99,,2013-03-03 12:32:00,
2013-03-03 06:43:00,54.0,-99.9,30.25,SE,125,5.0,6.0,-999,-99.99,,,-99.99,,2013-03-03 12:43:00,
2013-03-03 06:53:00,54.0,-99.9,30.25,SE,125,5.0,6.0,-999,-99.99,,,-99.99,,2013-03-03 12:53:00,
2013-03-03 07:00:00,55.0,-99.9,30.25,SE,128,7.0,9.0,-999,-99.99,,,-99.99,,2013-03-03 13:00:00,
2013-03-03 07:32:00,55.0,-99.9,30.25,SE,128,7.0,9.0,-999,-99.99,,,-99.99,,2013-03-03 13:32:00,
2013-03-03 07:42:00,55.0,-99.9,30.25,SE,128,7.0,9.0,-999,-99.99,,,-99.99,,2013-03-03 13:42:00,
2013-03-03 07:52:00,55.0,-99.9,30.25,SE,128,7.0,9.0,-999,-99.99,,,-99.99,,2013-03-03 13:52:00,
2013-03-03 08:00:00,56.0,-99.9,30.27,SE,139,9.0,10.0,-999,-99.99,,,-99.99,,2013-03-03 14:00:00,
2013-03-03 08:32:00,56.0,-99.9,30.27,SE,139,9.0,10.0,-999,-99.99,,,-99.99,,2013-03-03 14:32:00,
2013-03-03 08:42:00,56.0,-99.9,30.27,SE,139,9.0,10.0,-999,-99.99,,,-99.99,,2013-03-03 14:42:00,
2013-03-03 08:52:00,56.0,-99.9,30.27,SE,139,9.0,10.0,-999,-99.99,,,-99.99,,2013-03-03 14:52:00,
2013-03-03 09:00:00,57.0,-99.9,30.28,SE,144,10.0,12.0,-999,-99.99,,,-99.99,,2013-03-03 15:00:00,
2013-03-03 09:33:00,57.0,-99.9,30.28,SE,144,10.0,12.0,-999,-99.99,,,-99.99,,2013-03-03 15:33:00,
2013-03-03 09:42:00,57.0,-99.9,30.28,SE,144,10.0,12.0,-999,-99.99,,,-99.99,,2013-03-03 15:42:00,
2013-03-03 09:52:00,57.0,-99.9,30.28,SE,144,10.0,12.0,-999,-99.99,,,-99.99,,2013-03-03 15:52:00,
2013-03-03 10:00:00,57.0,-99.9,30.28,SSE,155,11.0,13.0,-999,-99.99,,,-99.99,,2013-03-03 16:00:00,
2013-03-03 10:32:00,57.0,-99.9,30.28,SSE,155,11.0,13.0,-999,-99.99,,,-99.99,,2013-03-03 16:32:00,
2013-03-03 10:42:00,57.0,-99.9,30.28,SSE,155,11.0,13.0,-999,-99.99,,,-99.99,,2013-03-03 16:42:00,
2013-03-03 10:52:00,57.0,-99.9,30.28,SSE,155,11.0,13.0,-999,-99.99,,,-99.99,,2013-03-03 16:52:00,
2013-03-03 11:00:00,58.0,-99.9,30.25,SSE,153,13.0,15.0,-999,-99.99,,,-99.99,,2013-03-03 17:00:00,
2013-03-03 11:32:00,58.0,-99.9,30.25,SSE,153,13.0,15.0,-999,-99.99,,,-99.99,,2013-03-03 17:32:00,
2013-03-03 11:42:00,58.0,-99.9,30.25,SSE,153,13.0,15.0,-999,-99.99,,,-99.99,,2013-03-03 17:42:00,
2013-03-03 11:52:00,58.0,-99.9,30.25,SSE,153,13.0,15.0,-999,-99.99,,,-99.99,,2013-03-03 17:52:00,
2013-03-03 12:00:00,60.0,-99.9,30.24,South,171,12.0,14.0,-999,-99.99,,,-99.99,,2013-03-03 18:00:00,
2013-03-03 12:32:00,60.0,-99.9,30.24,South,171,12.0,14.0,-999,-99.99,,,-99.99,,2013-03-03 18:32:00,
2013-03-03 12:42:00,60.0,-99.9,30.24,South,171,12.0,14.0,-999,-99.99,,,-99.99,,2013-03-03 18:42:00,
2013-03-03 12:53:00,60.0,-99.9,30.24,South,171,12.0,14.0,-999,-99.99,,,-99.99,,2013-03-03 18:53:00,
2013-03-03 13:00:00,60.0,-99.9,30.20,SSE,168,14.0,15.0,-999,-99.99,,,-99.99,,2013-03-03 19:00:00,
2013-03-03 13:32:00,60.0,-99.9,30.20,SSE,168,14.0,15.0,-999,-99.99,,,-99.99,,2013-03-03 19:32:00,
2013-03-03 13:42:00,60.0,-99.9,30.20,SSE,168,14.0,15.0,-999,-99.99,,,-99.99,,2013-03-03 19:42:00,
2013-03-03 13:52:00,60.0,-99.9,30.20,SSE,168,14.0,15.0,-999,-99.99,,,-99.99,,2013-03-03 19:52:00,
2013-03-03 14:00:00,61.0,-99.9,30.16,South,173,15.0,16.0,-999,-99.99,,,-99.99,,2013-03-03 20:00:00,
2013-03-03 14:32:00,61.0,-99.9,30.16,South,173,15.0,16.0,-999,-99.99,,,-99.99,,2013-03-03 20:32:00,
2013-03-03 14:43:00,61.0,-99.9,30.16,South,173,15.0,16.0,-999,-99.99,,,-99.99,,2013-03-03 20:43:00,
2013-03-03 14:53:00,61.0,-99.9,30.16,South,173,15.0,16.0,-999,-99.99,,,-99.99,,2013-03-03 20:53:00,
2013-03-03 15:00:00,62.0,-99.9,30.13,SSE,168,17.0,19.0,-999,-99.99,,,-99.99,,2013-03-03 21:00:00,
2013-03-03 15:32:00,62.0,-99.9,30.13,SSE,168,17.0,19.0,-999,-99.99,,,-99.99,,2013-03-03 21:32:00,
2013-03-03 15:42:00,62.0,-99.9,30.13,SSE,168,17.0,19.0,-999,-99.99,,,-99.99,,2013-03-03 21:42:00,
2013-03-03 15:52:00,62.0,-99.9,30.13,SSE,168,17.0,19.0,-999,-99.99,,,-99.99,,2013-03-03 21:52:00,
2013-03-03 16:00:00,63.0,-99.9,30.11,South,179,15.0,21.0,-999,-99.99,,,-99.99,,2013-03-03 22:00:00,
2013-03-03 16:32:00,63.0,-99.9,30.11,South,179,15.0,21.0,-999,-99.99,,,-99.99,,2013-03-03 22:32:00,
2013-03-03 16:42:00,63.0,-99.9,30.11,South,179,15.0,21.0,-999,-99.99,,,-99.99,,2013-03-03 22:42:00,
2013-03-03 16:53:00,63.0,-99.9,30.11,South,179,15.0,21.0,-999,-99.99,,,-99.99,,2013-03-03 22:53:00,
2013-03-03 17:00:00,63.0,-99.9,30.10,South,175,16.0,19.0,-999,-99.99,,,-99.99,,2013-03-03 23:00:00,
2013-03-03 17:32:00,63.0,-99.9,30.10,South,175,16.0,19.0,-999,-99.99,,,-99.99,,2013-03-03 23:32:00,
2013-03-03 17:42:00,63.0,-99.9,30.10,South,175,16.0,19.0,-999,-99.99,,,-99.99,,2013-03-03 23:42:00,
2013-03-03 17:52:00,63.0,-99.9,30.10,South,175,16.0,19.0,-999,-99.99,,,-99.99,,2013-03-03 23:52:00,
2013-03-03 18:00:00,63.0,-99.9,30.09,South,171,17.0,20.0,-999,-99.99,,,-99.99,,2013-03-04 00:00:00,
2013-03-03 18:32:00,63.0,-99.9,30.09,South,171,17.0,20.0,-999,-99.99,,,-99.99,,2013-03-04 00:32:00,
2013-03-03 18:42:00,63.0,-99.9,30.09,South,171,17.0,20.0,-999,-99.99,,,-99.99,,2013-03-04 00:42:00,
2013-03-03 18:52:00,63.0,-99.9,30.09,South,171,17.0,20.0,-999,-99.99,,,-99.99,,2013-03-04 00:52:00,
2013-03-03 19:00:00,62.0,-99.9,30.07,SSE,168,16.0,20.0,-999,-99.99,,,-99.99,,2013-03-04 01:00:00,
2013-03-03 19:32:00,62.0,-99.9,30.07,SSE,168,16.0,20.0,-999,-99.99,,,-99.99,,2013-03-04 01:32:00,
2013-03-03 19:42:00,62.0,-99.9,30.07,SSE,168,16.0,20.0,-999,-99.99,,,-99.99,,2013-03-04 01:42:00,
2013-03-03 19:52:00,62.0,-99.9,30.07,SSE,168,16.0,20.0,-999,-99.99,,,-99.99,,2013-03-04 01:52:00,
2013-03-03 20:00:00,62.0,-99.9,30.06,South,170,19.0,23.0,-999,-99.99,,,-99.99,,2013-03-04 02:00:00,
2013-03-03 20:32:00,62.0,-99.9,30.06,South,170,19.0,23.0,-999,-99.99,,,-99.99,,2013-03-04 02:32:00,
2013-03-03 20:42:00,62.0,-99.9,30.06,South,170,19.0,23.0,-999,-99.99,,,-99.99,,2013-03-04 02:42:00,
2013-03-03 20:53:00,62.0,-99.9,30.06,South,170,19.0,23.0,-999,-99.99,,,-99.99,,2013-03-04 02:53:00,
2013-03-03 21:00:00,62.0,-99.9,30.04,South,176,22.0,26.0,-999,-99.99,,,-99.99,,2013-03-04 03:00:00,
2013-03-03 21:32:00,62.0,-99.9,30.04,South,176,22.0,26.0,-999,-99.99,,,-99.99,,2013-03-04 03:32:00,
2013-03-03 21:42:00,62.0,-99.9,30.04,South,176,22.0,26.0,-999,-99.99,,,-99.99,,2013-03-04 03:42:00,
2013-03-03 21:53:00,62.0,-99.9,30.04,South,176,22.0,26.0,-999,-99.99,,,-99.99,,2013-03-04 03:53:00,
2013-03-03 22:00:00,62.0,-99.9,30.04,South,180,21.0,25.0,-999,-99.99,,,-99.99,,2013-03-04 04:00:00,
2013-03-03 22:22:00,62.0,-99.9,30.04,South,180,21.0,25.0,-999,-99.99,,,-99.99,,2013-03-04 04:22:00,
2013-03-03 22:32:00,62.0,-99.9,30.04,South,180,21.0,25.0,-999,-99.99,,,-99.99,,2013-03-04 04:32:00,
2013-03-03 22:42:00,62.0,-99.9,30.04,South,180,21.0,25.0,-999,-99.99,,,-99.99,,2013-03-04 04:42:00,
2013-03-03 22:52:00,62.0,-99.9,30.04,South,180,21.0,25.0,-999,-99.99,,,-99.99,,2013-03-04 04:52:00,
2013-03-03 23:00:00,63.0,-99.9,30.02,South,183,21.0,25.0,-999,-99.99,,,-99.99,,2013-03-04 05:00:00,
2013-03-03 23:32:00,63.0,-99.9,30.02,South,183,21.0,25.0,-999,-99.99,,,-99.99,,2013-03-04 05:32:00,
2013-03-03 23:43:00,63.0,-99.9,30.02,South,183,21.0,25.0,-999,-99.99,,,-99.99,,2013-03-04 05:43:00,
2013-03-03 23:52:00,63.0,-99.9,30.02,South,183,21.0,25.0,-999,-99.99,,,-99.99,,2013-03-04 05:52:00,